createdAt,value
2023-03-21T00:02:29.199Z,97676.47
2023-03-21T00:05:33.320Z,97676.13
2023-03-21T00:08:37.136Z,97677.59
2023-03-21T00:11:41.238Z,97682.13
2023-03-21T00:14:45.326Z,97674.47
2023-03-21T00:17:49.407Z,97674.78
2023-03-21T00:20:58.638Z,97671.31
2023-03-21T00:24:13.747Z,97667.19
2023-03-21T00:30:41.948Z,97659.44
2023-03-21T00:33:46.394Z,97654.00
2023-03-21T00:36:50.608Z,97648.97
2023-03-21T00:39:54.655Z,97647.66
2023-03-21T00:42:58.460Z,97646.47
2023-03-21T00:46:02.797Z,97657.63
2023-03-21T00:49:06.955Z,97643.84
2023-03-21T00:52:24.736Z,97644.28
2023-03-21T00:55:34.448Z,97642.00
2023-03-21T00:58:38.175Z,97641.41
2023-03-21T01:01:42.103Z,97638.09
2023-03-21T01:04:46.226Z,97636.31
2023-03-21T01:07:50.607Z,97651.56
2023-03-21T01:10:54.518Z,97645.47
2023-03-21T01:14:07.671Z,97637.38
2023-03-21T01:17:19.082Z,97639.78
2023-03-21T01:20:23.377Z,97638.09
2023-03-21T01:23:27.183Z,97641.22
2023-03-21T01:26:31.211Z,97634.06
2023-03-21T01:29:35.347Z,97645.22
2023-03-21T01:32:39.181Z,97637.28
2023-03-21T01:35:50.447Z,97635.78
2023-03-21T01:38:59.440Z,97634.59
2023-03-21T01:42:03.371Z,97632.78
2023-03-21T01:45:07.604Z,97640.34
2023-03-21T01:48:11.960Z,97630.88
2023-03-21T01:51:15.857Z,97636.34
2023-03-21T01:54:19.888Z,97634.31
2023-03-21T01:57:25.865Z,97636.09
2023-03-21T02:00:31.897Z,97629.41
2023-03-21T02:03:36.667Z,97629.88
2023-03-21T02:06:40.968Z,97625.78
2023-03-21T02:09:45.912Z,97626.31
2023-03-21T02:12:49.906Z,97629.53
2023-03-21T02:15:54.025Z,97629.13
2023-03-21T02:18:58.090Z,97626.53
2023-03-21T02:22:02.274Z,97620.41
2023-03-21T02:25:16.249Z,97620.41
2023-03-21T02:28:24.823Z,97627.06
2023-03-21T02:31:29.191Z,97626.75
2023-03-21T02:34:33.284Z,97629.84
2023-03-21T02:37:38.754Z,97631.31
2023-03-21T02:40:42.445Z,97629.75
2023-03-21T02:43:46.551Z,97618.22
2023-03-21T02:46:59.707Z,97626.34
2023-03-21T02:50:09.539Z,97619.06
2023-03-21T02:53:13.559Z,97616.81
2023-03-21T02:56:17.549Z,97614.56
2023-03-21T02:59:22.013Z,97612.09
2023-03-21T03:02:26.052Z,97615.19
2023-03-21T03:05:30.117Z,97614.91
2023-03-21T03:08:52.663Z,97622.53
2023-03-21T03:11:58.969Z,97625.53
2023-03-21T03:15:04.295Z,97625.16
2023-03-21T03:18:08.823Z,97617.16
2023-03-21T03:21:13.877Z,97625.94
2023-03-21T03:24:18.078Z,97624.81
2023-03-21T03:27:22.163Z,97624.78
2023-03-21T03:30:32.288Z,97613.66
2023-03-21T03:33:43.333Z,97615.59
2023-03-21T03:36:47.423Z,97623.41
2023-03-21T03:39:51.671Z,97621.84
2023-03-21T03:42:55.483Z,97622.81
2023-03-21T03:45:59.364Z,97623.63
2023-03-21T03:49:03.456Z,97631.91
2023-03-21T03:52:07.633Z,97621.63
2023-03-21T03:55:11.646Z,97611.56
2023-03-21T03:58:22.134Z,97610.94
2023-03-21T04:01:28.012Z,97616.41
2023-03-21T04:04:31.729Z,97621.03
2023-03-21T04:07:35.719Z,97613.56
2023-03-21T04:10:39.956Z,97613.38
2023-03-21T04:13:44.332Z,97613.56
2023-03-21T04:16:48.248Z,97609.28
2023-03-21T04:19:59.966Z,97612.31
2023-03-21T04:23:09.746Z,97611.56
2023-03-21T04:26:13.646Z,97614.59
2023-03-21T04:29:17.624Z,97616.59
2023-03-21T04:32:21.577Z,97619.34
2023-03-21T04:35:25.649Z,97622.56
2023-03-21T04:38:29.929Z,97635.88
2023-03-21T04:41:33.778Z,97639.94
2023-03-21T04:44:37.657Z,97627.66
2023-03-21T04:47:41.778Z,97619.16
2023-03-21T04:50:45.813Z,97622.16
2023-03-21T04:53:49.956Z,97617.69
2023-03-21T04:56:54.337Z,97624.53
2023-03-21T04:59:58.630Z,97630.41
2023-03-21T05:03:02.677Z,97630.75
2023-03-21T05:06:07.945Z,97631.38
2023-03-21T05:09:12.269Z,97632.03
2023-03-21T05:12:15.820Z,97633.03
2023-03-21T05:15:19.759Z,97621.75
2023-03-21T05:18:24.075Z,97619.78
2023-03-21T05:21:28.280Z,97624.22
2023-03-21T05:24:32.410Z,97611.91
2023-03-21T05:27:36.593Z,97619.38
2023-03-21T05:30:40.569Z,97613.56
2023-03-21T05:33:44.789Z,97609.94
2023-03-21T05:36:49.010Z,97615.00
2023-03-21T05:39:52.684Z,97610.78
2023-03-21T05:42:56.616Z,97619.63
2023-03-21T05:46:00.582Z,97617.19
2023-03-21T05:49:04.727Z,97615.00
2023-03-21T05:52:08.805Z,97614.38
2023-03-21T05:55:12.794Z,97618.78
2023-03-21T05:58:17.047Z,97615.16
2023-03-21T06:01:20.904Z,97617.16
2023-03-21T06:04:24.916Z,97628.88
2023-03-21T06:07:29.120Z,97637.13
2023-03-21T06:10:34.522Z,97636.50
2023-03-21T06:13:39.963Z,97631.25
2023-03-21T06:16:44.196Z,97634.94
2023-03-21T06:19:48.352Z,97644.97
2023-03-21T06:22:52.524Z,97642.34
2023-03-21T06:25:56.405Z,97641.56
2023-03-21T06:29:00.887Z,97643.97
2023-03-21T06:32:05.074Z,97636.50
2023-03-21T06:35:09.999Z,97642.28
2023-03-21T06:38:14.210Z,97642.16
2023-03-21T06:41:18.747Z,97641.28
2023-03-21T06:44:27.720Z,97645.03
2023-03-21T06:47:31.766Z,97650.84
2023-03-21T06:50:35.777Z,97655.19
2023-03-21T06:57:10.687Z,97660.34
2023-03-21T07:00:14.893Z,97661.69
2023-03-21T07:03:18.921Z,97658.44
2023-03-21T07:06:22.835Z,97661.38
2023-03-21T07:09:28.724Z,97657.00
2023-03-21T07:12:33.013Z,97664.47
2023-03-21T07:15:43.032Z,97663.31
2023-03-21T07:18:50.463Z,97660.22
2023-03-21T07:22:03.663Z,97667.94
2023-03-21T07:25:10.133Z,97660.97
2023-03-21T07:28:15.445Z,97667.75
2023-03-21T07:31:21.611Z,97669.13
2023-03-21T07:34:26.772Z,97659.56
2023-03-21T07:37:36.372Z,97655.84
2023-03-21T07:41:04.590Z,97670.69
2023-03-21T07:44:27.581Z,97678.66
2023-03-21T07:51:15.286Z,97682.00
2023-03-21T07:57:40.632Z,97679.16
2023-03-21T08:00:53.147Z,97684.13
2023-03-21T08:05:12.563Z,97674.44
2023-03-21T08:07:36.999Z,97679.88
2023-03-21T08:14:24.333Z,97679.50
2023-03-21T08:17:30.513Z,97675.38
2023-03-21T08:20:45.115Z,97681.56
2023-03-21T08:24:00.002Z,97678.25
2023-03-21T08:27:09.131Z,97676.09
2023-03-21T08:30:19.582Z,97680.34
2023-03-21T08:33:31.363Z,97689.06
2023-03-21T08:40:09.875Z,97680.75
2023-03-21T08:43:25.408Z,97675.47
2023-03-21T08:46:33.058Z,97669.56
2023-03-21T08:49:37.434Z,97669.31
2023-03-21T08:52:55.401Z,97671.38
2023-03-21T08:59:25.861Z,97667.59
2023-03-21T09:02:32.388Z,97669.00
2023-03-21T09:05:42.551Z,97674.47
2023-03-21T09:08:51.509Z,97661.94
2023-03-21T09:11:57.940Z,97655.81
2023-03-21T09:15:03.537Z,97663.91
2023-03-21T09:21:38.377Z,97652.25
2023-03-21T09:24:53.629Z,97654.44
2023-03-21T09:28:04.320Z,97654.09
2023-03-21T09:38:04.634Z,97660.75
2023-03-21T09:41:09.346Z,97663.25
2023-03-21T09:44:18.319Z,97664.75
2023-03-21T09:51:05.183Z,97655.22
2023-03-21T09:54:22.722Z,97651.81
2023-03-21T10:00:56.566Z,97639.19
2023-03-21T10:04:11.385Z,97640.78
2023-03-21T10:07:21.447Z,97640.25
2023-03-21T10:10:30.524Z,97631.84
2023-03-21T10:13:47.861Z,97628.06
2023-03-21T10:20:22.155Z,97613.28
2023-03-21T10:23:37.079Z,97608.38
2023-03-21T10:26:52.657Z,97607.81
2023-03-21T10:36:42.053Z,97602.00
2023-03-21T10:39:52.614Z,97596.78
2023-03-21T10:50:08.903Z,97603.00
2023-03-21T10:53:15.031Z,97605.00
2023-03-21T11:03:19.382Z,97589.88
2023-03-21T11:10:00.305Z,97589.72
2023-03-21T11:34:37.743Z,97562.16
2023-03-21T11:37:47.771Z,97560.09
2023-03-21T11:44:34.475Z,97551.50
2023-03-21T11:47:56.469Z,97545.09
2023-03-21T11:51:00.767Z,97542.06
2023-03-21T12:15:11.563Z,97503.97
2023-03-21T12:35:58.041Z,97467.75
2023-03-21T13:21:42.251Z,97434.56
2023-03-21T14:43:28.722Z,97354.97
2023-03-21T14:46:42.997Z,97343.53
2023-03-21T15:22:00.722Z,97338.00
2023-03-21T16:15:28.267Z,97323.38
2023-03-21T17:41:44.720Z,97360.69
2023-03-21T17:44:50.909Z,97366.22
2023-03-21T17:47:55.000Z,97359.56
2023-03-21T17:50:59.267Z,97373.06
2023-03-21T17:54:03.384Z,97362.75
2023-03-21T17:57:07.372Z,97381.47
2023-03-21T18:00:11.494Z,97371.72
2023-03-21T18:03:17.264Z,97372.03
2023-03-21T18:06:22.595Z,97374.63
2023-03-21T18:09:28.389Z,97376.31
2023-03-21T18:12:32.630Z,97389.22
2023-03-21T18:15:38.183Z,97388.06
2023-03-21T18:18:45.678Z,97378.94
2023-03-21T18:21:49.492Z,97384.22
2023-03-21T18:24:53.576Z,97382.84
2023-03-21T18:28:10.456Z,97386.53
2023-03-21T18:31:19.559Z,97378.22
2023-03-21T18:34:24.557Z,97376.63
2023-03-21T18:37:30.437Z,97383.09
2023-03-21T18:40:34.436Z,97376.28
2023-03-21T18:44:05.563Z,97377.97
2023-03-21T18:47:02.814Z,97370.88
2023-03-21T19:00:16.488Z,97387.38
2023-03-21T19:03:35.938Z,97385.72
2023-03-21T19:06:47.939Z,97397.28
2023-03-21T19:10:15.316Z,97396.59
2023-03-21T19:13:16.119Z,97395.34
2023-03-21T19:19:27.441Z,97399.16
2023-03-21T19:22:31.291Z,97404.59
2023-03-21T19:25:34.966Z,97405.44
2023-03-21T19:28:38.988Z,97411.59
2023-03-21T19:31:43.285Z,97402.78
2023-03-21T19:34:47.538Z,97403.28
2023-03-21T19:37:51.801Z,97399.34
2023-03-21T19:40:55.679Z,97396.09
2023-03-21T19:43:59.635Z,97399.84
2023-03-21T19:47:03.598Z,97402.50
2023-03-21T19:53:31.923Z,97402.47
2023-03-21T19:56:37.630Z,97404.16
2023-03-21T19:59:41.143Z,97401.44
2023-03-21T20:02:45.113Z,97405.34
2023-03-21T20:05:49.309Z,97402.84
2023-03-21T20:09:34.108Z,97403.41
2023-03-21T20:12:17.530Z,97397.00
2023-03-21T20:15:25.980Z,97391.31
2023-03-21T20:18:32.228Z,97397.56
2023-03-21T20:21:46.130Z,97401.19
2023-03-21T20:24:51.411Z,97403.69
2023-03-21T20:28:12.804Z,97404.56
2023-03-21T20:31:19.287Z,97406.53
2023-03-21T20:34:23.302Z,97410.53
2023-03-21T20:37:27.470Z,97413.34
2023-03-21T20:40:31.219Z,97419.09
2023-03-21T20:46:58.705Z,97407.03
2023-03-21T20:50:03.123Z,97419.00
2023-03-21T20:53:07.750Z,97426.16
2023-03-21T20:56:11.816Z,97412.88
2023-03-21T20:59:24.552Z,97417.59
2023-03-21T21:02:30.223Z,97420.88
2023-03-21T21:05:35.059Z,97414.78
2023-03-21T21:08:40.768Z,97413.97
2023-03-21T21:15:08.721Z,97414.72
2023-03-21T21:18:12.794Z,97411.97
2023-03-21T21:21:17.479Z,97410.97
2023-03-21T21:24:21.790Z,97409.75
2023-03-21T21:27:25.987Z,97402.22
2023-03-21T21:30:29.956Z,97397.63
2023-03-21T21:33:34.241Z,97402.97
2023-03-21T21:36:38.442Z,97400.31
2023-03-21T21:39:42.396Z,97399.00
2023-03-21T21:42:48.952Z,97401.81
2023-03-21T21:45:52.964Z,97399.69
2023-03-21T21:48:56.996Z,97402.31
2023-03-21T21:52:00.959Z,97403.97
2023-03-21T21:55:09.649Z,97409.44
2023-03-21T21:58:13.705Z,97406.72
2023-03-21T22:01:17.896Z,97407.94
2023-03-21T22:04:21.785Z,97399.81
2023-03-21T22:07:28.095Z,97403.44
2023-03-21T22:10:33.695Z,97407.91
2023-03-21T22:13:37.763Z,97404.25
2023-03-21T22:16:41.735Z,97407.72
2023-03-21T22:19:58.966Z,97408.50
2023-03-21T22:23:08.314Z,97400.88
2023-03-21T22:26:12.530Z,97398.97
2023-03-21T22:29:16.786Z,97398.38
2023-03-21T22:32:20.758Z,97396.84
2023-03-21T22:35:24.676Z,97393.44
2023-03-21T22:38:28.474Z,97400.56
2023-03-21T22:41:32.337Z,97392.72
2023-03-21T22:44:36.794Z,97389.78
2023-03-21T22:47:43.806Z,97394.34
2023-03-21T22:50:47.971Z,97396.44
2023-03-21T22:53:51.693Z,97388.00
2023-03-21T22:56:55.892Z,97392.03
2023-03-21T23:00:00.211Z,97398.75
2023-03-21T23:03:03.958Z,97391.66
2023-03-21T23:06:07.974Z,97396.16
2023-03-21T23:09:11.994Z,97400.56
2023-03-21T23:12:16.168Z,97399.94
2023-03-21T23:15:20.038Z,97393.38
2023-03-21T23:18:23.940Z,97399.75
2023-03-21T23:21:27.866Z,97390.06
2023-03-21T23:24:31.841Z,97392.88
2023-03-21T23:27:37.620Z,97392.66
2023-03-21T23:30:42.072Z,97389.50
2023-03-21T23:33:46.125Z,97391.03
2023-03-21T23:36:50.042Z,97383.91
2023-03-21T23:39:54.024Z,97386.31
2023-03-21T23:42:58.217Z,97396.63
2023-03-21T23:46:02.224Z,97398.78
2023-03-21T23:49:06.070Z,97396.03
2023-03-21T23:52:09.946Z,97395.44
2023-03-21T23:55:13.808Z,97395.16
2023-03-21T23:58:18.103Z,97393.22
